KHIF

Hill AFB Airport

Ogden, Utah, USA
METAR KHIF 151558Z AUTO 11009KT 10SM CLR M01/M07 A3021 RMK AO2 SLP246 T10131072
Observed Flight Rules
Dec-15 @ 15:58 UTC (14 minutes ago) Visual Flight Rules
Wind Visibility Clouds
110° at 9 knots 10 miles
  • Clear skies
Temperatures Readings
Current -1°C / 30°F
Dewpoint -7°C / 19°F
Humidity 64%
Altimeter 30.21" Hg
Pressure 1024.6 hPa
Elevation 1459
METAR KHIF 151558Z AUTO 11009KT 10SM CLR M01/M07 A3021 RMK AO2 SLP246 T10131072
Observed Flight Rules
Dec-15 @ 15:58 UTC
(14 minutes ago)
VFR
Wind Visibility
110° at 9 knots 10 miles
Clouds
  • Clear skies
Temperature Dewpoint
-1°C / 30°F -7°C / 19°F
Humidity Altimeter Pressure
64% 30.21" Hg 1024.6 hPa